Terminal Aerodrome Forecast
Issued by NWS

Home | Current Version | Previous Version | Text Only | Print | Product List | Glossary On
Versions: 1 2 3 4 5 6 7 8 9 10 11 12 13 14 15 16 17 18 19 20 21 22 23 24 25 26 27 28
000
FTUS45 KBOU 300100 AAB
TAFAPA
TAF AMD
KAPA 300100Z 3001/3024 15014KT P6SM SCT060 SCT120
      TEMPO 3002/3004 VRB15G25KT -TSRA BKN060CB
     FM300400 15011KT P6SM VCTS SCT060CB BKN120
     FM300600 18011KT P6SM SCT120
     FM301400 17007KT P6SM SCT070
     FM302000 06010KT P6SM SCT080=

USA.gov is the U.S. government's official web portal to all federal, state and local government web resources and services.